Startpagina
METAR-TAF:

METAR-TAF

Vliegvelden :

Luchthaven Diori Hamani

Niamey, Niger

breedte: 13-29N, lengte: 002-10E, hoogte: 223 m

Actueel weer

Dit bericht is 48 minuten geleden gemaakt, om 14:00 UTC
Wind 9 kt uit het oosten, variërend tussen het noordoosten en het zuiden
Temperatuur 45°C
Vochtigheid 4%
Druk 1007 hPa
Zicht: 4800 m
verspreid stof

METAR: DRRN 261400Z 09009KT 040V180 4800 DU NSC 45/M06 Q1007 TEMPO 6000

Tijdstip: 15:48 (14:48 UTC)

Verwachting

Dit bericht is 3 uur en het 48 minuten geleden gemaakt, om 11:00 UTC
Verwachting geldig van 26 om 12 UTC tot 27 om 18 UTC
Wind 14 kt uit het oosten
Zicht: 6000 m
Tijdelijke
van 26 om 12 UTC tot 26 om 20 UTC
Zicht: 3000 m
Stuifstof

TAF: DRRN 261100Z 2612/2718 10014KT 6000 NSC TEMPO 2612/2620 3000 BLDU

Waarnemingen en weersverwachtingen van meer dan 4000 vliegvelden (METAR en TAF).

De beschikbare stations zijn de gele en rode punten op de kaart.

Ga met uw muis naar het station om de naam te zien.

Klik dan om waarnemingen en weersverwachtingen te zien.

kaart wijzigen: klik op de groene knoppen met een zwart kruis om in te zoomen, op de groene knop met een streepje om uit te zoomen of op de groene pijlen voor aangrenzende kaarten.


METAR-TAF: